createdAt,value
2023-03-15T00:00:47.312Z,3.8
2023-03-15T00:01:54.016Z,3.6
2023-03-15T00:03:00.763Z,3.7
2023-03-15T00:04:07.536Z,3.9
2023-03-15T00:05:14.229Z,4
2023-03-15T00:06:20.982Z,4
2023-03-15T00:07:27.668Z,4.1
2023-03-15T00:08:34.435Z,4.1
2023-03-15T00:09:41.297Z,4
2023-03-15T00:10:49.597Z,4.1
2023-03-15T00:11:56.316Z,4.1
2023-03-15T00:13:03.119Z,4.3
2023-03-15T00:14:09.879Z,4.1
2023-03-15T00:15:16.881Z,3.7
2023-03-15T00:16:26.916Z,3.8
2023-03-15T00:17:33.784Z,3.8
2023-03-15T00:18:41.447Z,3.7
2023-03-15T00:19:48.166Z,3.7
2023-03-15T00:20:54.865Z,3.9
2023-03-15T00:22:01.703Z,3.8
2023-03-15T00:23:11.760Z,3.6
2023-03-15T00:24:18.553Z,3.6
2023-03-15T00:25:26.438Z,3.8
2023-03-15T00:26:33.139Z,3.9
2023-03-15T00:27:39.909Z,3.7
2023-03-15T00:28:46.720Z,3.6
2023-03-15T00:29:53.570Z,3.7
2023-03-15T00:31:00.678Z,3.7
2023-03-15T00:32:10.393Z,3.7
2023-03-15T00:33:17.244Z,3.5
2023-03-15T00:34:24.023Z,3.5
2023-03-15T00:35:38.416Z,3.5
2023-03-15T00:36:45.188Z,3.4
2023-03-15T00:37:52.075Z,3.5
2023-03-15T00:38:58.874Z,3.5
2023-03-15T00:40:05.776Z,3.3
2023-03-15T00:41:14.509Z,3.3
2023-03-15T00:42:21.322Z,3.3
2023-03-15T00:43:29.170Z,3.4
2023-03-15T00:44:35.931Z,3.5
2023-03-15T00:45:43.121Z,3.5
2023-03-15T00:46:50.473Z,3.2
2023-03-15T00:47:58.263Z,3.3
2023-03-15T00:49:05.145Z,3.4
2023-03-15T00:50:13.034Z,3.4
2023-03-15T00:51:19.909Z,3.3
2023-03-15T00:52:26.728Z,3.4
2023-03-15T00:53:33.666Z,3.4
2023-03-15T00:54:40.400Z,3.3
2023-03-15T00:55:47.316Z,3.4
2023-03-15T00:56:54.143Z,3.4
2023-03-15T00:58:00.953Z,3.4
2023-03-15T00:59:07.947Z,3.5
2023-03-15T01:00:14.760Z,3.4
2023-03-15T01:01:25.488Z,3.4
2023-03-15T01:02:32.498Z,3.4
2023-03-15T01:03:39.290Z,3.4
2023-03-15T01:04:47.956Z,3.4
2023-03-15T01:05:54.863Z,3.2
2023-03-15T01:07:01.712Z,3.3
2023-03-15T01:08:08.579Z,3.3
2023-03-15T01:09:15.545Z,3.4
2023-03-15T01:10:22.238Z,3.3
2023-03-15T01:11:29.095Z,3.6
2023-03-15T01:12:35.901Z,3.4
2023-03-15T01:13:42.770Z,3.3
2023-03-15T01:14:49.522Z,3.4
2023-03-15T01:15:56.484Z,3.5
2023-03-15T01:17:06.769Z,3.4
2023-03-15T01:18:13.585Z,3.5
2023-03-15T01:19:20.375Z,3.7
2023-03-15T01:20:27.210Z,3.8
2023-03-15T01:21:34.033Z,3.6
2023-03-15T01:22:40.869Z,3.9
2023-03-15T01:23:48.552Z,3.8
2023-03-15T01:24:55.355Z,3.9
2023-03-15T01:26:03.050Z,4
2023-03-15T01:27:12.306Z,3.8
2023-03-15T01:28:19.278Z,3.7
2023-03-15T01:29:27.370Z,3.6
2023-03-15T01:30:34.151Z,3.6
2023-03-15T01:31:41.785Z,3.7
2023-03-15T01:32:48.604Z,3.7
2023-03-15T01:33:55.434Z,3.8
2023-03-15T01:35:02.278Z,3.5
2023-03-15T01:36:09.249Z,3.7
2023-03-15T01:37:17.759Z,3.6
2023-03-15T01:38:24.559Z,3.6
2023-03-15T01:39:31.424Z,3.4
2023-03-15T01:40:38.322Z,3.3
2023-03-15T01:41:45.203Z,3.4
2023-03-15T01:42:52.015Z,3.4
2023-03-15T01:44:06.987Z,3.5
2023-03-15T01:45:19.017Z,3.4
2023-03-15T01:46:36.384Z,3.4
2023-03-15T01:47:43.083Z,3.5
2023-03-15T01:48:49.880Z,3.6
2023-03-15T01:50:01.832Z,3.7
2023-03-15T01:51:08.664Z,3.4
2023-03-15T01:52:22.271Z,3.5
2023-03-15T01:53:29.092Z,3.6
2023-03-15T01:54:36.760Z,3.6
2023-03-15T01:55:46.233Z,3.4
2023-03-15T01:56:53.234Z,3.4
2023-03-15T01:58:05.154Z,3.4
2023-03-15T01:59:11.996Z,3.4
2023-03-15T02:00:19.183Z,3.3
2023-03-15T02:01:26.107Z,3.5
2023-03-15T02:02:32.971Z,3.5
2023-03-15T02:03:39.766Z,3.4
2023-03-15T02:04:49.610Z,3.5
2023-03-15T02:05:56.430Z,3.7
2023-03-15T02:07:03.389Z,3.7
2023-03-15T02:08:10.431Z,3.6
2023-03-15T02:09:17.229Z,3.5
2023-03-15T02:10:23.997Z,3.7
2023-03-15T02:11:30.854Z,3.8
2023-03-15T02:12:38.702Z,3.6
2023-03-15T02:13:45.584Z,3.6
2023-03-15T02:14:52.339Z,3.7
2023-03-15T02:16:01.608Z,3.7
2023-03-15T02:17:08.597Z,3.7
2023-03-15T02:18:16.388Z,3.5
2023-03-15T02:19:23.208Z,3.6
2023-03-15T02:20:40.243Z,3.7
2023-03-15T02:21:55.096Z,3.7
2023-03-15T02:23:05.015Z,3.6
2023-03-15T02:24:11.995Z,3.4
2023-03-15T02:25:26.683Z,3.5
2023-03-15T02:26:41.341Z,3.4
2023-03-15T02:27:53.348Z,3.5
2023-03-15T02:29:00.972Z,3.5
2023-03-15T02:30:07.888Z,3.7
2023-03-15T02:31:14.898Z,3.7
2023-03-15T02:32:22.259Z,3.7
2023-03-15T02:33:29.836Z,3.6
2023-03-15T02:34:46.985Z,3.4
2023-03-15T02:35:53.798Z,3.4
2023-03-15T02:37:00.560Z,3.4
2023-03-15T02:38:07.404Z,3.6
2023-03-15T02:39:15.180Z,3.7
2023-03-15T02:40:21.964Z,3.6
2023-03-15T02:41:28.772Z,3.6
2023-03-15T02:42:40.449Z,3.7
2023-03-15T02:43:47.208Z,3.7
2023-03-15T02:44:54.922Z,3.4
2023-03-15T02:46:01.798Z,3.4
2023-03-15T02:47:13.892Z,3.5
2023-03-15T02:48:26.126Z,3.6
2023-03-15T02:49:32.942Z,3.7
2023-03-15T02:50:39.681Z,3.7
2023-03-15T02:51:46.554Z,3.7
2023-03-15T02:52:53.430Z,3.6
2023-03-15T02:54:00.307Z,3.5
2023-03-15T02:55:07.109Z,3.4
2023-03-15T02:56:17.095Z,3.6
2023-03-15T02:57:23.880Z,3.5
2023-03-15T02:58:30.779Z,3.5
2023-03-15T02:59:37.589Z,3.5
2023-03-15T03:00:44.386Z,3.5
2023-03-15T03:01:51.194Z,3.6
2023-03-15T03:02:57.932Z,3.6
2023-03-15T03:04:04.823Z,3.7
2023-03-15T03:05:11.865Z,3.6
2023-03-15T03:06:18.703Z,3.5
2023-03-15T03:07:25.521Z,3.5
2023-03-15T03:08:32.352Z,3.5
2023-03-15T03:09:39.146Z,3.6
2023-03-15T03:10:45.951Z,3.8
2023-03-15T03:11:52.744Z,3.6
2023-03-15T03:12:59.534Z,3.5
2023-03-15T03:14:06.314Z,3.5
2023-03-15T03:15:13.261Z,3.3
2023-03-15T03:16:20.215Z,3.5
2023-03-15T03:17:26.961Z,3.8
2023-03-15T03:18:33.952Z,3.8
2023-03-15T03:19:40.743Z,3.7
2023-03-15T03:20:47.629Z,3.6
2023-03-15T03:21:54.748Z,3.6
2023-03-15T03:23:01.581Z,3.6
2023-03-15T03:24:09.221Z,3.7
2023-03-15T03:25:21.845Z,3.6
2023-03-15T03:26:28.624Z,3.7
2023-03-15T03:27:35.447Z,3.8
2023-03-15T03:28:42.241Z,3.7
2023-03-15T03:29:49.145Z,3.8
2023-03-15T03:30:56.143Z,3.7
2023-03-15T03:32:02.930Z,3.8
2023-03-15T03:33:09.798Z,3.9
2023-03-15T03:34:17.448Z,3.9
2023-03-15T03:35:24.221Z,4.1
2023-03-15T03:36:32.749Z,4
2023-03-15T03:37:39.581Z,4
2023-03-15T03:38:46.376Z,3.8
2023-03-15T03:39:54.984Z,4
2023-03-15T03:41:01.748Z,4
2023-03-15T03:42:08.621Z,3.9
2023-03-15T03:43:15.555Z,3.6
2023-03-15T03:44:22.685Z,3.7
2023-03-15T03:45:29.596Z,3.6
2023-03-15T03:46:38.137Z,3.6
2023-03-15T03:47:45.772Z,3.6
2023-03-15T03:48:52.576Z,3.8
2023-03-15T03:49:59.379Z,3.8
2023-03-15T03:51:06.443Z,3.6
2023-03-15T03:52:13.407Z,3.7
2023-03-15T03:53:23.652Z,3.6
2023-03-15T03:54:30.432Z,3.3
2023-03-15T03:55:37.243Z,3.4
2023-03-15T03:56:46.542Z,3.6
2023-03-15T03:57:53.308Z,3.7
2023-03-15T03:59:00.215Z,3.8
2023-03-15T04:00:07.107Z,3.6
2023-03-15T04:01:14.229Z,3.7
2023-03-15T04:02:21.918Z,3.6
2023-03-15T04:03:28.642Z,3.6
2023-03-15T04:04:35.476Z,3.3
2023-03-15T04:05:42.284Z,3.2
2023-03-15T04:06:49.964Z,3.3
2023-03-15T04:07:56.806Z,3.3
2023-03-15T04:09:03.638Z,3.3
2023-03-15T04:10:10.441Z,3.3
2023-03-15T04:11:17.284Z,3.3
2023-03-15T04:12:25.427Z,3.5
2023-03-15T04:13:32.254Z,3.7
2023-03-15T04:14:39.043Z,3.4
2023-03-15T04:15:45.869Z,3.3
2023-03-15T04:16:52.685Z,3.5
2023-03-15T04:18:00.518Z,3.6
2023-03-15T04:19:07.521Z,3.8
2023-03-15T04:20:14.334Z,3.6
2023-03-15T04:21:21.911Z,3.4
2023-03-15T04:22:28.702Z,3.5
2023-03-15T04:23:35.962Z,3.7
2023-03-15T04:24:42.930Z,3.7
2023-03-15T04:25:49.714Z,3.6
2023-03-15T04:26:56.600Z,3.6
2023-03-15T04:28:05.516Z,3.6
2023-03-15T04:29:11.225Z,3.7
2023-03-15T04:30:18.153Z,3.6
2023-03-15T04:31:25.177Z,3.3
2023-03-15T04:32:31.975Z,3.2
2023-03-15T04:33:38.675Z,3.2
2023-03-15T04:34:45.529Z,3.3
2023-03-15T04:35:52.510Z,3.6
2023-03-15T04:36:59.477Z,3.8
2023-03-15T04:38:06.297Z,3.6
2023-03-15T04:39:13.129Z,3.7
2023-03-15T04:40:19.930Z,3.8
2023-03-15T04:41:29.726Z,3.6
2023-03-15T04:42:36.538Z,3.4
2023-03-15T04:43:43.486Z,3.4
2023-03-15T04:44:50.379Z,3.6
2023-03-15T04:45:57.183Z,3.7
2023-03-15T04:47:04.149Z,3.7
2023-03-15T04:48:10.929Z,3.4
2023-03-15T04:49:17.769Z,3.5
2023-03-15T04:50:24.636Z,3.5
2023-03-15T04:51:31.455Z,3.5
2023-03-15T04:52:38.297Z,3.8
2023-03-15T04:53:45.065Z,3.7
2023-03-15T04:54:52.819Z,3.8
2023-03-15T04:55:59.894Z,3.7
2023-03-15T04:57:06.784Z,3.6
2023-03-15T04:58:13.637Z,3.5
2023-03-15T04:59:23.423Z,3.3
2023-03-15T05:00:31.106Z,3.3
2023-03-15T05:01:37.962Z,3.5
2023-03-15T05:02:44.820Z,3.7
2023-03-15T05:03:51.788Z,3.6
2023-03-15T05:04:58.585Z,3.4
2023-03-15T05:06:06.543Z,3.5
2023-03-15T05:07:14.566Z,3.2
2023-03-15T05:08:21.578Z,3.4
2023-03-15T05:09:29.533Z,3.6
2023-03-15T05:10:36.460Z,3.4
2023-03-15T05:11:44.615Z,3
2023-03-15T05:12:51.838Z,3.1
2023-03-15T05:13:59.039Z,3.2
2023-03-15T05:15:07.611Z,3.3
2023-03-15T05:16:14.758Z,3.4
2023-03-15T05:17:21.800Z,3.3
2023-03-15T05:18:28.813Z,3.4
2023-03-15T05:19:35.824Z,3.4
2023-03-15T05:20:42.960Z,3.3
2023-03-15T05:21:51.079Z,3.2
2023-03-15T05:23:01.802Z,3.4
2023-03-15T05:24:10.719Z,3.3
2023-03-15T05:25:17.691Z,3.1
2023-03-15T05:26:24.722Z,3.3
2023-03-15T05:27:33.159Z,3.2
2023-03-15T05:28:40.322Z,3
2023-03-15T05:29:47.235Z,3
2023-03-15T05:30:54.226Z,3
2023-03-15T05:32:01.254Z,3.1
2023-03-15T05:33:09.401Z,3.3
2023-03-15T05:34:16.387Z,3.3
2023-03-15T05:35:23.549Z,3.4
2023-03-15T05:36:32.205Z,3.3
2023-03-15T05:37:39.147Z,3
2023-03-15T05:38:46.084Z,2.9
2023-03-15T05:39:53.049Z,3
2023-03-15T05:41:00.101Z,2.9
2023-03-15T05:42:07.209Z,2.9
2023-03-15T05:43:15.193Z,2.8
2023-03-15T05:44:22.310Z,2.6
2023-03-15T05:45:31.270Z,2.8
2023-03-15T05:46:38.277Z,2.7
2023-03-15T05:47:46.176Z,2.6
2023-03-15T05:48:53.136Z,2.7
2023-03-15T05:50:00.260Z,2.8
2023-03-15T05:51:09.204Z,2.8
2023-03-15T05:52:16.126Z,2.9
2023-03-15T05:53:26.113Z,2.9
2023-03-15T05:54:35.809Z,3
2023-03-15T05:55:42.936Z,3.1
2023-03-15T05:56:49.949Z,3.2
2023-03-15T05:57:59.031Z,3
2023-03-15T05:59:06.954Z,3
2023-03-15T06:00:13.951Z,3
2023-03-15T06:01:21.328Z,3
2023-03-15T06:02:30.667Z,3
2023-03-15T06:03:37.704Z,3.1
2023-03-15T06:04:45.431Z,2.9
2023-03-15T06:05:52.398Z,3.1
2023-03-15T06:06:59.668Z,3.2
2023-03-15T06:08:06.656Z,3.3
2023-03-15T06:09:13.901Z,3.2
2023-03-15T06:10:21.039Z,2.9
2023-03-15T06:11:28.013Z,3.1
2023-03-15T06:12:35.010Z,3.1
2023-03-15T06:13:41.926Z,3.2
2023-03-15T06:14:48.961Z,3.2
2023-03-15T06:15:56.046Z,3.3
2023-03-15T06:17:08.278Z,3.3
2023-03-15T06:18:16.352Z,3.3
2023-03-15T06:19:23.472Z,3.3
2023-03-15T06:20:31.393Z,3.3
2023-03-15T06:21:38.370Z,3
2023-03-15T06:22:45.343Z,2.7
2023-03-15T06:23:52.321Z,3
2023-03-15T06:24:59.340Z,3
2023-03-15T06:26:06.220Z,3
2023-03-15T06:27:13.348Z,3
2023-03-15T06:28:20.330Z,2.8
2023-03-15T06:29:27.390Z,2.9
2023-03-15T06:30:34.569Z,3
2023-03-15T06:31:42.588Z,3.1
2023-03-15T06:32:49.537Z,2.9
2023-03-15T06:33:59.157Z,2.9
2023-03-15T06:35:06.194Z,2.8
2023-03-15T06:36:14.101Z,2.7
2023-03-15T06:37:32.860Z,2.6
2023-03-15T06:38:29.449Z,2.7
2023-03-15T06:39:38.185Z,2.8
2023-03-15T06:40:45.258Z,2.8
2023-03-15T06:41:52.240Z,2.9
2023-03-15T06:43:01.610Z,3
2023-03-15T06:44:08.797Z,2.9
2023-03-15T06:45:16.771Z,3
2023-03-15T06:46:26.235Z,2.8
2023-03-15T06:47:33.203Z,2.8
2023-03-15T06:48:41.197Z,2.8
2023-03-15T06:49:48.417Z,2.8
2023-03-15T06:50:55.478Z,2.8
2023-03-15T06:52:02.503Z,2.9
2023-03-15T06:53:09.556Z,2.9
2023-03-15T06:54:16.581Z,3.1
2023-03-15T06:55:23.499Z,3.1
2023-03-15T06:56:30.613Z,3.1
2023-03-15T06:57:37.629Z,3.1
2023-03-15T06:58:44.711Z,3
2023-03-15T06:59:51.672Z,3.1
2023-03-15T07:00:58.681Z,3.1
2023-03-15T07:02:06.602Z,3.3
2023-03-15T07:03:16.580Z,3.3
2023-03-15T07:04:23.580Z,3.1
2023-03-15T07:05:30.589Z,3.1
2023-03-15T07:06:38.508Z,3.1
2023-03-15T07:07:46.623Z,3.3
2023-03-15T07:08:53.590Z,3.2
2023-03-15T07:10:01.910Z,3.1
2023-03-15T07:11:09.135Z,3.1
2023-03-15T07:12:16.175Z,3.2
2023-03-15T07:13:23.125Z,3.2
2023-03-15T07:14:30.994Z,3.3
2023-03-15T07:15:39.081Z,3.3
2023-03-15T07:16:45.956Z,3.3
2023-03-15T07:17:52.965Z,3.2
2023-03-15T07:18:59.992Z,3.2
2023-03-15T07:20:06.953Z,3
2023-03-15T07:21:15.287Z,3
2023-03-15T07:22:23.332Z,3
2023-03-15T07:23:30.309Z,3.1
2023-03-15T07:24:37.334Z,2.9
2023-03-15T07:25:54.635Z,2.7
2023-03-15T07:26:53.669Z,2.9
2023-03-15T07:28:00.649Z,3
2023-03-15T07:29:07.753Z,3.1
2023-03-15T07:30:14.836Z,3.3
2023-03-15T07:31:21.949Z,3.3
2023-03-15T07:32:29.080Z,3.2
2023-03-15T07:33:36.987Z,3.3
2023-03-15T07:34:44.004Z,3.1
2023-03-15T07:35:51.049Z,3.1
2023-03-15T07:36:58.054Z,3.1
2023-03-15T07:38:05.109Z,3
2023-03-15T07:39:12.091Z,3.1
2023-03-15T07:40:19.148Z,3.1
2023-03-15T07:41:27.346Z,3.3
2023-03-15T07:42:34.324Z,3.3
2023-03-15T07:43:41.441Z,3.2
2023-03-15T07:44:48.387Z,3.1
2023-03-15T07:45:55.453Z,2.9
2023-03-15T07:47:02.521Z,3.1
2023-03-15T07:48:09.790Z,3.1
2023-03-15T07:49:16.871Z,3.3
2023-03-15T07:50:23.814Z,3.4
2023-03-15T07:51:32.938Z,3.3
2023-03-15T07:52:39.947Z,3.5
2023-03-15T07:53:50.574Z,3.6
2023-03-15T07:54:58.074Z,3.6
2023-03-15T07:56:06.066Z,3.7
2023-03-15T07:57:14.203Z,3.7
2023-03-15T07:58:21.137Z,3.4
2023-03-15T07:59:28.160Z,3.6
2023-03-15T08:00:38.469Z,3.7
2023-03-15T08:01:47.854Z,3.8
2023-03-15T08:02:54.952Z,3.8
2023-03-15T08:04:02.133Z,3.8
2023-03-15T08:05:09.592Z,3.9
2023-03-15T08:06:16.819Z,3.9
2023-03-15T08:07:23.963Z,3.8
2023-03-15T08:08:31.366Z,3.7
2023-03-15T08:09:42.399Z,3.8
2023-03-15T08:10:54.606Z,3.9
2023-03-15T08:12:02.972Z,3.9
2023-03-15T08:13:13.865Z,3.9
2023-03-15T08:14:28.703Z,3.9
2023-03-15T08:16:05.176Z,3.9
2023-03-15T08:17:12.540Z,3.9
2023-03-15T08:18:23.595Z,3.9
2023-03-15T08:19:32.669Z,3.8
2023-03-15T08:20:42.336Z,3.7
2023-03-15T08:21:52.061Z,3.8
2023-03-15T08:23:25.263Z,3.8
2023-03-15T08:24:32.332Z,3.8
2023-03-15T08:25:39.410Z,4
2023-03-15T08:26:48.230Z,4
2023-03-15T08:27:57.073Z,3.9
2023-03-15T08:29:04.315Z,3.8
2023-03-15T08:30:12.221Z,3.9
2023-03-15T08:31:21.098Z,4
2023-03-15T08:32:28.213Z,4
2023-03-15T08:33:35.440Z,4.1
2023-03-15T08:34:43.309Z,4
2023-03-15T08:35:50.484Z,4
2023-03-15T08:36:58.575Z,4.2
2023-03-15T08:38:09.723Z,4.3
2023-03-15T08:39:16.728Z,4.3
2023-03-15T08:40:27.619Z,4.3
2023-03-15T08:41:34.520Z,4.1
2023-03-15T08:42:42.997Z,4.2
2023-03-15T08:44:05.048Z,4
2023-03-15T08:45:12.343Z,4
2023-03-15T08:46:52.584Z,4
2023-03-15T08:47:59.822Z,3.8
2023-03-15T08:49:09.693Z,4
2023-03-15T08:50:14.270Z,4
2023-03-15T08:51:24.403Z,4.3
2023-03-15T08:52:31.379Z,4.3
2023-03-15T08:53:52.550Z,4.2
2023-03-15T08:55:00.387Z,4.3
2023-03-15T08:58:10.900Z,4.4
2023-03-15T08:59:32.368Z,4.3
2023-03-15T09:00:47.889Z,4.3
2023-03-15T09:02:31.796Z,4.4
2023-03-15T09:04:15.631Z,4.6
2023-03-15T09:05:32.660Z,4.7
2023-03-15T09:06:42.804Z,4.6
2023-03-15T09:07:49.848Z,4.5
2023-03-15T09:09:09.573Z,4.5
2023-03-15T09:10:17.501Z,4.3
2023-03-15T09:11:47.389Z,4.1
2023-03-15T09:12:55.318Z,4.3
2023-03-15T09:14:03.377Z,4.5
2023-03-15T09:15:10.411Z,4.4
2023-03-15T09:16:18.098Z,4.4
2023-03-15T09:17:27.982Z,4.4
2023-03-15T09:18:35.051Z,4.4
2023-03-15T09:19:44.744Z,4.3
2023-03-15T09:20:52.137Z,4.4
2023-03-15T09:22:10.638Z,4.5
2023-03-15T09:23:09.338Z,4.6
2023-03-15T09:24:22.831Z,4.6
2023-03-15T09:25:33.530Z,4.6
2023-03-15T09:26:40.616Z,4.6
2023-03-15T09:27:50.171Z,4.3
2023-03-15T09:28:57.296Z,4.3
2023-03-15T09:30:29.938Z,4.4
2023-03-15T09:31:39.098Z,4.4
2023-03-15T09:32:49.364Z,4.4
2023-03-15T09:34:05.470Z,4.3
2023-03-15T09:35:27.905Z,4.4
2023-03-15T09:36:39.491Z,4.3
2023-03-15T09:37:46.498Z,4.3
2023-03-15T09:38:54.310Z,4.4
2023-03-15T09:40:04.957Z,4.5
2023-03-15T09:41:30.515Z,4.4
2023-03-15T09:42:47.644Z,4.5
2023-03-15T09:44:52.048Z,4.6
2023-03-15T09:46:12.011Z,4.8
2023-03-15T09:47:29.454Z,4.9
2023-03-15T09:48:46.928Z,4.9
2023-03-15T10:01:06.937Z,4.9
2023-03-15T10:27:27.273Z,5
2023-03-15T11:03:32.398Z,4.7
2023-03-15T11:04:40.245Z,4.6
2023-03-15T11:05:52.721Z,4.5
2023-03-15T11:09:24.097Z,4.8
2023-03-15T13:06:46.299Z,5.8
2023-03-15T13:09:23.964Z,5.5
2023-03-15T13:10:53.150Z,5.7
2023-03-15T13:12:00.956Z,5.6
2023-03-15T13:13:08.992Z,5.7
2023-03-15T13:14:24.351Z,5.6
2023-03-15T13:15:40.665Z,5.7
2023-03-15T13:16:49.171Z,5.6
2023-03-15T13:18:10.330Z,5.7
2023-03-15T13:19:23.588Z,5.6
2023-03-15T13:20:30.911Z,5.7
2023-03-15T13:21:46.419Z,5.7
2023-03-15T13:23:12.452Z,5.7
2023-03-15T13:24:34.986Z,5.9
2023-03-15T13:25:45.385Z,5.8
2023-03-15T13:27:00.255Z,5.6
2023-03-15T13:28:07.291Z,5.7
2023-03-15T13:29:19.513Z,5.7
2023-03-15T13:30:58.253Z,5.8
2023-03-15T13:32:07.176Z,5.8
2023-03-15T13:33:17.955Z,5.7
2023-03-15T13:34:31.559Z,5.8
2023-03-15T13:35:39.772Z,5.7
2023-03-15T13:36:47.957Z,5.9
2023-03-15T13:37:57.704Z,5.9
2023-03-15T13:39:27.741Z,6
2023-03-15T13:40:35.793Z,6
2023-03-15T13:41:50.417Z,6.2
2023-03-15T13:43:05.447Z,6.1
2023-03-15T13:44:15.298Z,6.1
2023-03-15T13:45:25.426Z,6
2023-03-15T13:46:32.440Z,5.9
2023-03-15T13:47:40.960Z,5.9
2023-03-15T13:48:50.549Z,6
2023-03-15T13:50:00.738Z,5.7
2023-03-15T13:51:10.305Z,5.7
2023-03-15T13:52:30.517Z,5.7
2023-03-15T13:53:48.858Z,5.7
2023-03-15T13:54:45.441Z,5.9
2023-03-15T13:55:53.444Z,5.8
2023-03-15T13:57:00.410Z,5.9
2023-03-15T13:58:15.226Z,5.7
2023-03-15T13:59:22.353Z,5.8
2023-03-15T14:00:29.390Z,5.9
2023-03-15T14:01:39.580Z,5.9
2023-03-15T14:02:46.725Z,5.9
2023-03-15T14:04:13.102Z,6.1
2023-03-15T14:05:20.965Z,6
2023-03-15T14:06:31.712Z,5.9
2023-03-15T14:07:41.127Z,5.8
2023-03-15T14:08:52.274Z,5.9
2023-03-15T14:09:59.348Z,5.9
2023-03-15T14:11:15.852Z,5.8
2023-03-15T14:12:22.927Z,5.9
2023-03-15T14:13:30.944Z,5.9
2023-03-15T14:14:42.636Z,5.9
2023-03-15T14:15:57.646Z,6
2023-03-15T14:17:07.315Z,6.1
2023-03-15T14:18:24.327Z,5.9
2023-03-15T14:19:34.478Z,6
2023-03-15T14:20:48.269Z,6
2023-03-15T14:22:14.028Z,6
2023-03-15T14:23:21.367Z,6.1
2023-03-15T14:24:28.582Z,6
2023-03-15T14:25:44.857Z,5.9
2023-03-15T14:26:54.889Z,5.9
2023-03-15T14:28:02.296Z,5.7
2023-03-15T14:29:09.386Z,5.9
2023-03-15T14:30:19.501Z,5.8
2023-03-15T14:31:26.816Z,5.7
2023-03-15T14:32:37.708Z,5.8
2023-03-15T14:33:44.849Z,5.8
2023-03-15T14:34:57.496Z,5.9
2023-03-15T14:36:15.511Z,6.1
2023-03-15T14:37:29.104Z,6
2023-03-15T14:38:42.562Z,6.1
2023-03-15T14:39:49.662Z,6.2
2023-03-15T14:40:57.080Z,6.1
2023-03-15T14:42:16.798Z,6.1
2023-03-15T14:43:24.098Z,6.1
2023-03-15T14:44:31.275Z,6.1
2023-03-15T14:45:38.494Z,6.2
2023-03-15T14:46:45.957Z,6.2
2023-03-15T14:47:57.012Z,6.2
2023-03-15T14:49:05.067Z,6.2
2023-03-15T14:50:17.975Z,6
2023-03-15T14:51:25.181Z,5.9
2023-03-15T14:52:32.529Z,6
2023-03-15T14:53:39.594Z,6.1
2023-03-15T14:54:46.627Z,6.2
2023-03-15T14:55:53.750Z,6
2023-03-15T14:57:00.690Z,6.2
2023-03-15T14:58:07.615Z,6.3
2023-03-15T14:59:14.505Z,6.3
2023-03-15T15:00:21.510Z,6.2
2023-03-15T15:01:28.581Z,6.2
2023-03-15T15:02:35.706Z,6
2023-03-15T15:03:42.600Z,6
2023-03-15T15:04:49.581Z,6
2023-03-15T15:05:56.455Z,5.9
2023-03-15T15:07:03.466Z,6
2023-03-15T15:08:13.449Z,6.1
2023-03-15T15:09:21.874Z,6
2023-03-15T15:10:28.994Z,6.2
2023-03-15T15:11:35.865Z,6.2
2023-03-15T15:12:44.109Z,6
2023-03-15T15:13:49.717Z,6.1
2023-03-15T15:14:56.582Z,6.3
2023-03-15T15:16:05.787Z,6.3
2023-03-15T15:17:13.590Z,6.3
2023-03-15T15:18:22.360Z,6.3
2023-03-15T15:19:32.126Z,6.3
2023-03-15T15:20:39.120Z,6.4
2023-03-15T15:21:46.846Z,6.5
2023-03-15T15:22:54.529Z,6.3
2023-03-15T15:24:01.429Z,6.3
2023-03-15T15:25:09.801Z,6.4
2023-03-15T15:26:19.686Z,6.4
2023-03-15T15:27:26.569Z,6.5
2023-03-15T15:28:36.330Z,6.3
2023-03-15T15:29:40.521Z,6.3
2023-03-15T15:30:47.382Z,6.4
2023-03-15T15:31:55.101Z,6.6
2023-03-15T15:33:03.361Z,6.6
2023-03-15T15:34:11.082Z,6.6
2023-03-15T15:35:18.259Z,6.4
2023-03-15T15:36:25.260Z,6.5
2023-03-15T15:37:35.424Z,6.4
2023-03-15T15:38:42.369Z,6.4
2023-03-15T15:39:49.315Z,6.2
2023-03-15T15:41:00.384Z,6.4
2023-03-15T15:42:07.385Z,6.4
2023-03-15T15:43:14.412Z,6.5
2023-03-15T15:44:23.941Z,6.5
2023-03-15T15:45:32.653Z,6.5
2023-03-15T15:46:39.760Z,6.4
2023-03-15T15:47:47.332Z,6.4
2023-03-15T15:48:55.343Z,6.4
2023-03-15T15:50:04.081Z,6.5
2023-03-15T15:51:11.688Z,6.4
2023-03-15T15:52:22.523Z,6.3
2023-03-15T15:53:32.896Z,6.4
2023-03-15T15:54:40.828Z,6.4
2023-03-15T15:55:47.932Z,6.3
2023-03-15T15:56:54.896Z,6.1
2023-03-15T15:58:03.715Z,6
2023-03-15T15:59:16.395Z,6.1
2023-03-15T16:00:23.421Z,6.2
2023-03-15T16:01:33.901Z,6.2
2023-03-15T16:02:40.929Z,6.2
2023-03-15T16:03:49.915Z,6.2
2023-03-15T16:04:57.137Z,6.2
2023-03-15T16:06:04.215Z,6.2
2023-03-15T16:07:14.714Z,6.3
2023-03-15T16:08:23.696Z,6.2
2023-03-15T16:09:31.115Z,6.1
2023-03-15T16:10:40.844Z,6.1
2023-03-15T16:11:47.815Z,6.1
2023-03-15T16:12:54.893Z,6.1
2023-03-15T16:14:01.933Z,6.1
2023-03-15T16:15:10.703Z,6.1
2023-03-15T16:16:19.259Z,6.1
2023-03-15T16:17:26.197Z,6.2
2023-03-15T16:18:35.506Z,6.2
2023-03-15T16:19:43.576Z,6.1
2023-03-15T16:20:50.858Z,6.1
2023-03-15T16:21:59.890Z,5.8
2023-03-15T16:23:06.928Z,5.9
2023-03-15T16:24:17.684Z,5.7
2023-03-15T16:25:29.306Z,5.7
2023-03-15T16:26:36.303Z,5.9
2023-03-15T16:27:45.859Z,6
2023-03-15T16:28:55.709Z,5.9
2023-03-15T16:30:04.439Z,5.8
2023-03-15T16:31:12.008Z,5.9
2023-03-15T16:32:33.289Z,5.9
2023-03-15T16:33:29.363Z,5.9
2023-03-15T16:34:45.530Z,5.9
2023-03-15T16:35:52.582Z,6
2023-03-15T16:37:03.029Z,6.1
2023-03-15T16:38:11.136Z,6.1
2023-03-15T16:39:18.332Z,6
2023-03-15T16:40:30.383Z,6
2023-03-15T16:41:40.718Z,5.8
2023-03-15T16:42:49.671Z,5.7
2023-03-15T16:43:57.347Z,5.7
2023-03-15T16:45:04.494Z,5.8
2023-03-15T16:46:14.673Z,5.7
2023-03-15T16:47:23.871Z,5.6
2023-03-15T16:48:30.904Z,5.8
2023-03-15T16:49:42.263Z,5.8
2023-03-15T16:50:49.267Z,5.9
2023-03-15T16:51:59.586Z,5.9
2023-03-15T16:53:06.554Z,5.8
2023-03-15T16:54:21.974Z,5.8
2023-03-15T16:55:21.109Z,5.6
2023-03-15T16:56:28.261Z,5.7
2023-03-15T16:57:36.146Z,5.7
2023-03-15T16:58:45.951Z,5.8
2023-03-15T16:59:57.001Z,5.7
2023-03-15T17:01:04.161Z,5.8
2023-03-15T17:02:11.333Z,5.7
2023-03-15T17:03:24.392Z,5.7
2023-03-15T17:04:37.049Z,5.7
2023-03-15T17:05:44.010Z,5.7
2023-03-15T17:06:55.133Z,5.7
2023-03-15T17:08:03.161Z,5.7
2023-03-15T17:09:10.241Z,5.7
2023-03-15T17:10:19.995Z,5.8
2023-03-15T17:11:28.875Z,5.8
2023-03-15T17:12:36.322Z,5.8
2023-03-15T17:13:45.800Z,5.7
2023-03-15T17:14:52.831Z,5.7
2023-03-15T17:16:00.782Z,5.7
2023-03-15T17:17:09.045Z,5.7
2023-03-15T17:18:19.920Z,5.7
2023-03-15T17:19:31.523Z,5.7
2023-03-15T17:20:38.985Z,5.6
2023-03-15T17:21:48.889Z,5.6
2023-03-15T17:22:56.473Z,5.6
2023-03-15T17:24:03.689Z,5.6
2023-03-15T17:25:10.823Z,5.6
2023-03-15T17:26:18.033Z,5.6
2023-03-15T17:27:25.127Z,5.6
2023-03-15T17:28:37.262Z,5.6
2023-03-15T17:30:09.405Z,5.6
2023-03-15T17:31:25.908Z,5.5
2023-03-15T17:32:41.491Z,5.5
2023-03-15T17:33:48.661Z,5.5
2023-03-15T17:34:56.543Z,5.5
2023-03-15T17:36:03.687Z,5.5
2023-03-15T17:37:08.401Z,5.5
2023-03-15T17:38:19.354Z,5.4
2023-03-15T17:39:27.037Z,5.4
2023-03-15T17:40:35.299Z,5.4
2023-03-15T17:41:42.554Z,5.3
2023-03-15T17:42:49.647Z,5.3
2023-03-15T17:43:58.834Z,5.3
2023-03-15T17:45:10.277Z,5.3
2023-03-15T17:46:25.771Z,5.2
2023-03-15T17:47:33.868Z,5.2
2023-03-15T17:48:40.986Z,5.2
2023-03-15T17:49:48.067Z,5.2
2023-03-15T17:50:58.892Z,5.2
2023-03-15T17:52:06.057Z,5.2
2023-03-15T17:53:16.454Z,5.2
2023-03-15T17:54:23.395Z,5.1
2023-03-15T17:55:30.466Z,5.1
2023-03-15T17:56:38.688Z,5.1
2023-03-15T17:57:54.933Z,5.1
2023-03-15T17:58:59.315Z,5
2023-03-15T18:00:08.804Z,5.1
2023-03-15T18:01:20.979Z,5
2023-03-15T18:02:32.713Z,5
2023-03-15T18:03:39.167Z,5
2023-03-15T18:04:46.111Z,5
2023-03-15T18:05:54.237Z,5
2023-03-15T18:07:01.265Z,5
2023-03-15T18:08:08.376Z,4.9
2023-03-15T18:09:20.609Z,4.9
2023-03-15T18:10:28.212Z,4.9
2023-03-15T18:11:47.238Z,4.9
2023-03-15T18:13:20.590Z,4.8
2023-03-15T18:14:27.817Z,4.8
2023-03-15T18:15:35.056Z,4.8
2023-03-15T18:16:44.103Z,4.8
2023-03-15T18:17:51.465Z,4.8
2023-03-15T18:19:02.894Z,4.8
2023-03-15T18:20:12.562Z,4.8
2023-03-15T18:21:19.780Z,4.8
2023-03-15T18:22:26.876Z,4.8
2023-03-15T18:23:33.998Z,4.8
2023-03-15T18:24:41.041Z,4.8
2023-03-15T18:25:48.386Z,4.7
2023-03-15T18:26:55.738Z,4.7
2023-03-15T18:28:03.921Z,4.7
2023-03-15T18:29:12.025Z,4.7
2023-03-15T18:30:19.099Z,4.7
2023-03-15T18:31:27.204Z,4.7
2023-03-15T18:32:40.736Z,4.7
2023-03-15T18:33:50.717Z,4.7
2023-03-15T18:35:01.760Z,4.7
2023-03-15T18:36:10.146Z,4.7
2023-03-15T18:37:17.109Z,4.7
2023-03-15T18:39:51.164Z,4.7
2023-03-15T18:41:46.949Z,4.7
2023-03-15T18:42:58.018Z,4.7
2023-03-15T18:44:05.173Z,4.7
2023-03-15T18:45:12.529Z,4.7
2023-03-15T18:46:19.958Z,4.7
2023-03-15T18:47:30.104Z,4.7
2023-03-15T18:48:40.939Z,4.7
2023-03-15T18:49:45.263Z,4.7
2023-03-15T18:50:52.302Z,4.7
2023-03-15T18:51:59.796Z,4.7
2023-03-15T18:53:06.960Z,4.7
2023-03-15T18:54:14.022Z,4.7
2023-03-15T18:55:26.127Z,4.8
2023-03-15T18:56:33.547Z,4.7
2023-03-15T18:57:50.563Z,4.7
2023-03-15T18:58:57.578Z,4.7
2023-03-15T19:00:04.964Z,4.7
2023-03-15T19:01:13.002Z,4.7
2023-03-15T19:02:23.044Z,4.7
2023-03-15T19:03:30.061Z,4.7
2023-03-15T19:04:37.144Z,4.7
2023-03-15T19:05:44.179Z,4.7
2023-03-15T19:06:52.979Z,4.6
2023-03-15T19:07:59.976Z,4.6
2023-03-15T19:09:07.040Z,4.6
2023-03-15T19:10:14.098Z,4.6
2023-03-15T19:11:21.242Z,4.6